sensor_id;sensor_type;location;lat;lon;timestamp;temperature;humidity
26505;DHT22;19493;48.042;7.584;2023-03-08T00:01:19;3.80;92.90
26505;DHT22;19493;48.042;7.584;2023-03-08T00:03:45;3.90;93.00
26505;DHT22;19493;48.042;7.584;2023-03-08T00:06:13;3.90;93.10
26505;DHT22;19493;48.042;7.584;2023-03-08T00:08:39;3.90;93.20
26505;DHT22;19493;48.042;7.584;2023-03-08T00:11:07;3.90;93.20
26505;DHT22;19493;48.042;7.584;2023-03-08T00:13:33;3.90;93.40
26505;DHT22;19493;48.042;7.584;2023-03-08T00:16:04;3.80;93.50
26505;DHT22;19493;48.042;7.584;2023-03-08T00:18:31;3.80;93.60
26505;DHT22;19493;48.042;7.584;2023-03-08T00:21:05;3.80;93.70
26505;DHT22;19493;48.042;7.584;2023-03-08T00:23:31;3.80;93.70
26505;DHT22;19493;48.042;7.584;2023-03-08T00:25:57;3.80;93.90
26505;DHT22;19493;48.042;7.584;2023-03-08T00:28:23;3.80;94.40
26505;DHT22;19493;48.042;7.584;2023-03-08T00:31:05;3.70;94.20
26505;DHT22;19493;48.042;7.584;2023-03-08T00:33:32;3.60;94.40
26505;DHT22;19493;48.042;7.584;2023-03-08T00:36:01;3.60;94.50
26505;DHT22;19493;48.042;7.584;2023-03-08T00:38:29;3.70;94.50
26505;DHT22;19493;48.042;7.584;2023-03-08T00:40:55;3.60;94.50
26505;DHT22;19493;48.042;7.584;2023-03-08T00:43:21;3.60;94.70
26505;DHT22;19493;48.042;7.584;2023-03-08T00:45:46;3.60;94.90
26505;DHT22;19493;48.042;7.584;2023-03-08T00:48:12;3.60;95.00
26505;DHT22;19493;48.042;7.584;2023-03-08T00:50:38;3.50;95.20
26505;DHT22;19493;48.042;7.584;2023-03-08T00:53:03;3.50;95.30
26505;DHT22;19493;48.042;7.584;2023-03-08T00:55:29;3.50;95.20
26505;DHT22;19493;48.042;7.584;2023-03-08T00:57:54;3.50;95.20
26505;DHT22;19493;48.042;7.584;2023-03-08T01:00:20;3.60;95.20
26505;DHT22;19493;48.042;7.584;2023-03-08T01:02:46;3.60;95.40
26505;DHT22;19493;48.042;7.584;2023-03-08T01:05:12;3.60;95.40
26505;DHT22;19493;48.042;7.584;2023-03-08T01:07:38;3.50;95.50
26505;DHT22;19493;48.042;7.584;2023-03-08T01:10:04;3.60;95.60
26505;DHT22;19493;48.042;7.584;2023-03-08T01:12:34;3.60;95.60
26505;DHT22;19493;48.042;7.584;2023-03-08T01:15:00;3.60;95.70
26505;DHT22;19493;48.042;7.584;2023-03-08T01:17:26;3.60;95.80
26505;DHT22;19493;48.042;7.584;2023-03-08T01:19:51;3.50;96.10
26505;DHT22;19493;48.042;7.584;2023-03-08T01:22:17;3.50;96.30
26505;DHT22;19493;48.042;7.584;2023-03-08T01:24:46;3.40;96.50
26505;DHT22;19493;48.042;7.584;2023-03-08T01:27:13;3.40;96.80
26505;DHT22;19493;48.042;7.584;2023-03-08T01:29:38;3.40;97.00
26505;DHT22;19493;48.042;7.584;2023-03-08T01:32:04;3.30;97.20
26505;DHT22;19493;48.042;7.584;2023-03-08T01:34:30;3.20;97.50
26505;DHT22;19493;48.042;7.584;2023-03-08T01:36:55;3.30;97.50
26505;DHT22;19493;48.042;7.584;2023-03-08T01:39:21;3.30;97.50
26505;DHT22;19493;48.042;7.584;2023-03-08T01:41:46;3.20;97.60
26505;DHT22;19493;48.042;7.584;2023-03-08T01:44:15;3.20;97.80
26505;DHT22;19493;48.042;7.584;2023-03-08T01:46:41;3.20;97.90
26505;DHT22;19493;48.042;7.584;2023-03-08T01:49:27;3.20;98.10
26505;DHT22;19493;48.042;7.584;2023-03-08T01:52:13;3.30;98.00
26505;DHT22;19493;48.042;7.584;2023-03-08T01:54:46;3.40;98.00
26505;DHT22;19493;48.042;7.584;2023-03-08T01:57:26;3.40;97.80
26505;DHT22;19493;48.042;7.584;2023-03-08T01:59:56;3.50;97.70
26505;DHT22;19493;48.042;7.584;2023-03-08T02:02:25;3.50;97.40
26505;DHT22;19493;48.042;7.584;2023-03-08T02:04:52;3.60;97.10
26505;DHT22;19493;48.042;7.584;2023-03-08T02:07:17;3.60;97.00
26505;DHT22;19493;48.042;7.584;2023-03-08T02:09:44;3.70;96.80
26505;DHT22;19493;48.042;7.584;2023-03-08T02:12:12;3.70;96.80
26505;DHT22;19493;48.042;7.584;2023-03-08T02:14:40;3.70;96.90
26505;DHT22;19493;48.042;7.584;2023-03-08T02:17:06;3.70;97.00
26505;DHT22;19493;48.042;7.584;2023-03-08T02:19:46;3.70;97.00
26505;DHT22;19493;48.042;7.584;2023-03-08T02:22:15;3.70;97.00
26505;DHT22;19493;48.042;7.584;2023-03-08T02:24:42;3.70;97.00
26505;DHT22;19493;48.042;7.584;2023-03-08T02:27:20;3.70;97.00
26505;DHT22;19493;48.042;7.584;2023-03-08T02:29:46;3.70;97.00
26505;DHT22;19493;48.042;7.584;2023-03-08T02:32:12;3.70;96.90
26505;DHT22;19493;48.042;7.584;2023-03-08T02:34:38;3.80;96.90
26505;DHT22;19493;48.042;7.584;2023-03-08T02:37:03;3.90;96.80
26505;DHT22;19493;48.042;7.584;2023-03-08T02:39:29;3.90;96.70
26505;DHT22;19493;48.042;7.584;2023-03-08T02:41:54;3.90;96.90
26505;DHT22;19493;48.042;7.584;2023-03-08T02:44:20;3.90;96.80
26505;DHT22;19493;48.042;7.584;2023-03-08T02:46:46;4.00;96.90
26505;DHT22;19493;48.042;7.584;2023-03-08T02:49:11;4.00;96.90
26505;DHT22;19493;48.042;7.584;2023-03-08T02:51:37;4.00;97.00
26505;DHT22;19493;48.042;7.584;2023-03-08T02:54:03;4.00;97.00
26505;DHT22;19493;48.042;7.584;2023-03-08T02:56:28;4.00;97.00
26505;DHT22;19493;48.042;7.584;2023-03-08T02:58:54;4.10;96.90
26505;DHT22;19493;48.042;7.584;2023-03-08T03:01:19;4.10;96.90
26505;DHT22;19493;48.042;7.584;2023-03-08T03:03:45;4.10;96.90
26505;DHT22;19493;48.042;7.584;2023-03-08T03:06:15;4.10;96.90
26505;DHT22;19493;48.042;7.584;2023-03-08T03:08:41;4.10;97.00
26505;DHT22;19493;48.042;7.584;2023-03-08T03:11:14;4.10;97.10
26505;DHT22;19493;48.042;7.584;2023-03-08T03:13:40;4.10;97.10
26505;DHT22;19493;48.042;7.584;2023-03-08T03:16:07;4.10;97.10
26505;DHT22;19493;48.042;7.584;2023-03-08T03:18:33;4.10;97.10
26505;DHT22;19493;48.042;7.584;2023-03-08T03:21:05;4.10;97.20
26505;DHT22;19493;48.042;7.584;2023-03-08T03:23:31;4.10;97.30
26505;DHT22;19493;48.042;7.584;2023-03-08T03:28:31;4.10;97.30
26505;DHT22;19493;48.042;7.584;2023-03-08T03:30:56;4.00;97.40
26505;DHT22;19493;48.042;7.584;2023-03-08T03:33:22;4.00;97.50
26505;DHT22;19493;48.042;7.584;2023-03-08T03:35:47;4.10;97.40
26505;DHT22;19493;48.042;7.584;2023-03-08T03:38:13;4.00;97.40
26505;DHT22;19493;48.042;7.584;2023-03-08T03:40:38;4.10;97.50
26505;DHT22;19493;48.042;7.584;2023-03-08T03:43:04;4.10;97.60
26505;DHT22;19493;48.042;7.584;2023-03-08T03:45:30;4.10;97.50
26505;DHT22;19493;48.042;7.584;2023-03-08T03:47:55;4.20;97.50
26505;DHT22;19493;48.042;7.584;2023-03-08T03:50:21;4.20;97.30
26505;DHT22;19493;48.042;7.584;2023-03-08T03:52:46;4.20;97.00
26505;DHT22;19493;48.042;7.584;2023-03-08T03:55:12;4.20;97.10
26505;DHT22;19493;48.042;7.584;2023-03-08T03:57:37;4.20;97.10
26505;DHT22;19493;48.042;7.584;2023-03-08T04:00:03;4.20;97.00
26505;DHT22;19493;48.042;7.584;2023-03-08T04:02:30;4.20;97.20
26505;DHT22;19493;48.042;7.584;2023-03-08T04:04:56;4.20;97.30
26505;DHT22;19493;48.042;7.584;2023-03-08T04:07:21;4.20;97.40
26505;DHT22;19493;48.042;7.584;2023-03-08T04:09:47;4.20;97.70
26505;DHT22;19493;48.042;7.584;2023-03-08T04:12:13;4.20;97.40
26505;DHT22;19493;48.042;7.584;2023-03-08T04:14:39;4.20;97.40
26505;DHT22;19493;48.042;7.584;2023-03-08T04:17:05;4.10;97.50
26505;DHT22;19493;48.042;7.584;2023-03-08T04:19:31;4.10;97.50
26505;DHT22;19493;48.042;7.584;2023-03-08T04:21:56;4.10;97.50
26505;DHT22;19493;48.042;7.584;2023-03-08T04:24:22;4.10;97.60
26505;DHT22;19493;48.042;7.584;2023-03-08T04:26:48;4.10;97.60
26505;DHT22;19493;48.042;7.584;2023-03-08T04:29:13;4.10;97.60
26505;DHT22;19493;48.042;7.584;2023-03-08T04:31:39;4.10;97.70
26505;DHT22;19493;48.042;7.584;2023-03-08T04:34:04;4.10;97.80
26505;DHT22;19493;48.042;7.584;2023-03-08T04:36:30;4.20;97.90
26505;DHT22;19493;48.042;7.584;2023-03-08T04:38:56;4.20;97.90
26505;DHT22;19493;48.042;7.584;2023-03-08T04:41:21;4.20;97.90
26505;DHT22;19493;48.042;7.584;2023-03-08T04:43:53;4.20;98.00
26505;DHT22;19493;48.042;7.584;2023-03-08T04:46:21;4.20;98.10
26505;DHT22;19493;48.042;7.584;2023-03-08T04:48:47;4.20;98.00
26505;DHT22;19493;48.042;7.584;2023-03-08T04:51:14;4.30;98.00
26505;DHT22;19493;48.042;7.584;2023-03-08T04:53:40;4.30;97.80
26505;DHT22;19493;48.042;7.584;2023-03-08T04:56:08;4.40;97.90
26505;DHT22;19493;48.042;7.584;2023-03-08T04:58:35;4.30;98.00
26505;DHT22;19493;48.042;7.584;2023-03-08T05:01:08;4.30;97.90
26505;DHT22;19493;48.042;7.584;2023-03-08T05:03:34;4.30;98.00
26505;DHT22;19493;48.042;7.584;2023-03-08T05:05:59;4.30;98.10
26505;DHT22;19493;48.042;7.584;2023-03-08T05:08:25;4.30;98.30
26505;DHT22;19493;48.042;7.584;2023-03-08T05:10:56;4.30;98.10
26505;DHT22;19493;48.042;7.584;2023-03-08T05:13:26;4.40;98.10
26505;DHT22;19493;48.042;7.584;2023-03-08T05:15:52;4.40;98.10
26505;DHT22;19493;48.042;7.584;2023-03-08T05:18:18;4.40;98.10
26505;DHT22;19493;48.042;7.584;2023-03-08T05:20:44;4.50;98.00
26505;DHT22;19493;48.042;7.584;2023-03-08T05:23:16;4.50;97.90
26505;DHT22;19493;48.042;7.584;2023-03-08T05:25:42;4.50;98.00
26505;DHT22;19493;48.042;7.584;2023-03-08T05:28:09;4.50;98.10
26505;DHT22;19493;48.042;7.584;2023-03-08T05:30:34;4.40;98.10
26505;DHT22;19493;48.042;7.584;2023-03-08T05:33:00;4.50;98.30
26505;DHT22;19493;48.042;7.584;2023-03-08T05:35:25;4.40;98.30
26505;DHT22;19493;48.042;7.584;2023-03-08T05:37:51;4.50;98.30
26505;DHT22;19493;48.042;7.584;2023-03-08T05:40:17;4.50;98.40
26505;DHT22;19493;48.042;7.584;2023-03-08T05:42:43;4.50;98.50
26505;DHT22;19493;48.042;7.584;2023-03-08T05:45:08;4.50;98.50
26505;DHT22;19493;48.042;7.584;2023-03-08T05:47:34;4.50;98.40
26505;DHT22;19493;48.042;7.584;2023-03-08T05:50:00;4.60;98.40
26505;DHT22;19493;48.042;7.584;2023-03-08T05:52:25;4.60;98.50
26505;DHT22;19493;48.042;7.584;2023-03-08T05:54:51;4.60;98.40
26505;DHT22;19493;48.042;7.584;2023-03-08T05:57:16;4.70;98.40
26505;DHT22;19493;48.042;7.584;2023-03-08T05:59:42;4.80;98.30
26505;DHT22;19493;48.042;7.584;2023-03-08T06:02:07;4.80;98.00
26505;DHT22;19493;48.042;7.584;2023-03-08T06:04:33;5.00;97.60
26505;DHT22;19493;48.042;7.584;2023-03-08T06:06:59;5.00;97.60
26505;DHT22;19493;48.042;7.584;2023-03-08T06:09:24;4.90;98.50
26505;DHT22;19493;48.042;7.584;2023-03-08T06:11:50;4.70;99.20
26505;DHT22;19493;48.042;7.584;2023-03-08T06:14:15;4.50;99.90
26505;DHT22;19493;48.042;7.584;2023-03-08T06:16:41;4.40;99.90
26505;DHT22;19493;48.042;7.584;2023-03-08T06:19:06;4.40;99.90
26505;DHT22;19493;48.042;7.584;2023-03-08T06:21:32;4.30;99.90
26505;DHT22;19493;48.042;7.584;2023-03-08T06:23:57;4.40;99.90
26505;DHT22;19493;48.042;7.584;2023-03-08T06:26:23;4.50;99.90
26505;DHT22;19493;48.042;7.584;2023-03-08T06:28:48;4.70;99.90
26505;DHT22;19493;48.042;7.584;2023-03-08T06:31:16;4.80;99.90
26505;DHT22;19493;48.042;7.584;2023-03-08T06:33:41;4.90;99.90
26505;DHT22;19493;48.042;7.584;2023-03-08T06:36:15;4.90;99.90
26505;DHT22;19493;48.042;7.584;2023-03-08T06:38:41;4.90;99.90
26505;DHT22;19493;48.042;7.584;2023-03-08T06:41:08;4.90;99.90
26505;DHT22;19493;48.042;7.584;2023-03-08T06:43:34;4.80;99.90
26505;DHT22;19493;48.042;7.584;2023-03-08T06:46:04;4.70;99.90
26505;DHT22;19493;48.042;7.584;2023-03-08T06:48:30;4.50;99.90
26505;DHT22;19493;48.042;7.584;2023-03-08T06:50:56;4.30;99.90
26505;DHT22;19493;48.042;7.584;2023-03-08T06:53:21;4.30;99.90
26505;DHT22;19493;48.042;7.584;2023-03-08T06:55:47;4.20;99.90
26505;DHT22;19493;48.042;7.584;2023-03-08T06:58:12;4.10;99.90
26505;DHT22;19493;48.042;7.584;2023-03-08T07:00:38;4.10;99.90
26505;DHT22;19493;48.042;7.584;2023-03-08T07:03:03;4.10;99.90
26505;DHT22;19493;48.042;7.584;2023-03-08T07:05:29;4.20;99.90
26505;DHT22;19493;48.042;7.584;2023-03-08T07:07:55;4.30;99.90
26505;DHT22;19493;48.042;7.584;2023-03-08T07:10:21;4.40;99.90
26505;DHT22;19493;48.042;7.584;2023-03-08T07:12:48;4.50;99.90
26505;DHT22;19493;48.042;7.584;2023-03-08T07:15:17;4.60;99.90
26505;DHT22;19493;48.042;7.584;2023-03-08T07:17:44;4.70;99.90
26505;DHT22;19493;48.042;7.584;2023-03-08T07:20:11;4.80;99.90
26505;DHT22;19493;48.042;7.584;2023-03-08T07:22:38;4.80;99.90
26505;DHT22;19493;48.042;7.584;2023-03-08T07:25:07;4.90;99.90
26505;DHT22;19493;48.042;7.584;2023-03-08T07:27:33;4.90;99.90
26505;DHT22;19493;48.042;7.584;2023-03-08T07:29:58;5.00;99.90
26505;DHT22;19493;48.042;7.584;2023-03-08T07:32:24;5.00;99.90
26505;DHT22;19493;48.042;7.584;2023-03-08T07:34:54;5.00;99.90
26505;DHT22;19493;48.042;7.584;2023-03-08T07:37:20;5.10;99.90
26505;DHT22;19493;48.042;7.584;2023-03-08T07:39:45;5.20;99.90
26505;DHT22;19493;48.042;7.584;2023-03-08T07:42:12;5.30;99.90
26505;DHT22;19493;48.042;7.584;2023-03-08T07:44:38;5.60;99.90
26505;DHT22;19493;48.042;7.584;2023-03-08T07:47:08;5.80;99.90
26505;DHT22;19493;48.042;7.584;2023-03-08T07:49:34;5.80;99.90
26505;DHT22;19493;48.042;7.584;2023-03-08T07:51:59;5.90;99.90
26505;DHT22;19493;48.042;7.584;2023-03-08T07:54:25;6.10;99.90
26505;DHT22;19493;48.042;7.584;2023-03-08T07:56:52;6.20;99.90
26505;DHT22;19493;48.042;7.584;2023-03-08T07:59:18;6.40;99.90
26505;DHT22;19493;48.042;7.584;2023-03-08T08:01:43;6.60;99.90
26505;DHT22;19493;48.042;7.584;2023-03-08T08:04:09;6.80;99.90
26505;DHT22;19493;48.042;7.584;2023-03-08T08:06:37;6.90;99.90
26505;DHT22;19493;48.042;7.584;2023-03-08T08:09:03;7.00;99.90
26505;DHT22;19493;48.042;7.584;2023-03-08T08:11:28;7.10;99.90
26505;DHT22;19493;48.042;7.584;2023-03-08T08:13:54;7.30;99.90
26505;DHT22;19493;48.042;7.584;2023-03-08T08:16:20;7.40;99.90
26505;DHT22;19493;48.042;7.584;2023-03-08T08:18:45;7.60;99.90
26505;DHT22;19493;48.042;7.584;2023-03-08T08:21:13;7.80;99.90
26505;DHT22;19493;48.042;7.584;2023-03-08T08:23:39;7.70;99.90
26505;DHT22;19493;48.042;7.584;2023-03-08T08:26:07;7.80;99.90
26505;DHT22;19493;48.042;7.584;2023-03-08T08:28:34;7.90;99.90
26505;DHT22;19493;48.042;7.584;2023-03-08T08:31:03;8.00;99.90
26505;DHT22;19493;48.042;7.584;2023-03-08T08:33:30;8.10;99.90
26505;DHT22;19493;48.042;7.584;2023-03-08T08:35:57;8.40;99.90
26505;DHT22;19493;48.042;7.584;2023-03-08T08:38:23;8.40;99.90
26505;DHT22;19493;48.042;7.584;2023-03-08T08:40:49;8.30;99.90
26505;DHT22;19493;48.042;7.584;2023-03-08T08:43:15;8.10;99.90
26505;DHT22;19493;48.042;7.584;2023-03-08T08:45:45;8.10;99.90
26505;DHT22;19493;48.042;7.584;2023-03-08T08:48:11;8.00;99.90
26505;DHT22;19493;48.042;7.584;2023-03-08T08:50:41;7.80;99.90
26505;DHT22;19493;48.042;7.584;2023-03-08T08:53:07;7.80;99.90
26505;DHT22;19493;48.042;7.584;2023-03-08T08:55:34;7.70;99.90
26505;DHT22;19493;48.042;7.584;2023-03-08T08:58:01;7.80;99.90
26505;DHT22;19493;48.042;7.584;2023-03-08T09:00:27;8.00;99.90
26505;DHT22;19493;48.042;7.584;2023-03-08T09:02:52;8.30;99.90
26505;DHT22;19493;48.042;7.584;2023-03-08T09:05:18;8.50;99.90
26505;DHT22;19493;48.042;7.584;2023-03-08T09:07:44;8.60;99.90
26505;DHT22;19493;48.042;7.584;2023-03-08T09:10:10;8.80;99.90
26505;DHT22;19493;48.042;7.584;2023-03-08T09:12:36;9.50;99.90
26505;DHT22;19493;48.042;7.584;2023-03-08T09:15:02;9.70;99.90
26505;DHT22;19493;48.042;7.584;2023-03-08T09:17:28;9.30;99.90
26505;DHT22;19493;48.042;7.584;2023-03-08T09:19:53;8.60;99.90
26505;DHT22;19493;48.042;7.584;2023-03-08T09:22:19;8.70;99.90
26505;DHT22;19493;48.042;7.584;2023-03-08T09:24:44;9.00;99.90
26505;DHT22;19493;48.042;7.584;2023-03-08T09:27:12;9.00;99.90
26505;DHT22;19493;48.042;7.584;2023-03-08T09:29:38;8.80;99.90
26505;DHT22;19493;48.042;7.584;2023-03-08T09:32:04;9.00;99.90
26505;DHT22;19493;48.042;7.584;2023-03-08T09:34:30;9.50;99.90
26505;DHT22;19493;48.042;7.584;2023-03-08T09:36:56;10.30;99.90
26505;DHT22;19493;48.042;7.584;2023-03-08T09:39:22;10.30;99.90
26505;DHT22;19493;48.042;7.584;2023-03-08T09:41:56;10.00;99.90
26505;DHT22;19493;48.042;7.584;2023-03-08T09:49:46;10.20;99.90
26505;DHT22;19493;48.042;7.584;2023-03-08T09:52:34;10.10;99.90
26505;DHT22;19493;48.042;7.584;2023-03-08T09:55:03;10.60;99.90
26505;DHT22;19493;48.042;7.584;2023-03-08T09:57:35;11.20;99.90
26505;DHT22;19493;48.042;7.584;2023-03-08T10:00:05;10.90;99.90
26505;DHT22;19493;48.042;7.584;2023-03-08T10:02:46;10.50;99.90
26505;DHT22;19493;48.042;7.584;2023-03-08T10:10:58;11.00;99.90
26505;DHT22;19493;48.042;7.584;2023-03-08T10:13:31;11.20;99.90
26505;DHT22;19493;48.042;7.584;2023-03-08T10:16:25;11.60;99.90
26505;DHT22;19493;48.042;7.584;2023-03-08T10:19:15;11.60;99.90
26505;DHT22;19493;48.042;7.584;2023-03-08T10:21:43;11.50;99.90
26505;DHT22;19493;48.042;7.584;2023-03-08T10:27:13;11.40;99.90
26505;DHT22;19493;48.042;7.584;2023-03-08T10:29:53;11.30;99.90
26505;DHT22;19493;48.042;7.584;2023-03-08T10:32:20;11.20;99.90
26505;DHT22;19493;48.042;7.584;2023-03-08T10:34:45;11.00;99.90
26505;DHT22;19493;48.042;7.584;2023-03-08T10:37:11;11.10;99.90
26505;DHT22;19493;48.042;7.584;2023-03-08T10:39:55;11.10;99.90
26505;DHT22;19493;48.042;7.584;2023-03-08T10:42:25;11.00;99.90
26505;DHT22;19493;48.042;7.584;2023-03-08T10:45:12;11.00;99.90
26505;DHT22;19493;48.042;7.584;2023-03-08T10:47:38;11.00;99.90
26505;DHT22;19493;48.042;7.584;2023-03-08T10:50:21;11.10;99.90
26505;DHT22;19493;48.042;7.584;2023-03-08T10:52:48;11.10;99.90
26505;DHT22;19493;48.042;7.584;2023-03-08T10:55:21;11.20;99.90
26505;DHT22;19493;48.042;7.584;2023-03-08T10:57:56;11.30;99.90
26505;DHT22;19493;48.042;7.584;2023-03-08T11:00:34;11.50;99.90
26505;DHT22;19493;48.042;7.584;2023-03-08T11:03:17;11.50;99.90
26505;DHT22;19493;48.042;7.584;2023-03-08T11:06:04;11.60;99.90
26505;DHT22;19493;48.042;7.584;2023-03-08T11:08:54;11.70;99.90
26505;DHT22;19493;48.042;7.584;2023-03-08T11:11:20;12.00;99.90
26505;DHT22;19493;48.042;7.584;2023-03-08T11:13:47;12.20;99.90
26505;DHT22;19493;48.042;7.584;2023-03-08T11:16:20;12.60;99.90
26505;DHT22;19493;48.042;7.584;2023-03-08T11:18:56;12.90;99.90
26505;DHT22;19493;48.042;7.584;2023-03-08T11:21:25;12.90;99.90
26505;DHT22;19493;48.042;7.584;2023-03-08T11:24:00;12.80;99.90
26505;DHT22;19493;48.042;7.584;2023-03-08T11:29:41;13.30;99.90
26505;DHT22;19493;48.042;7.584;2023-03-08T11:32:43;13.70;99.90
26505;DHT22;19493;48.042;7.584;2023-03-08T11:35:23;13.70;99.90
26505;DHT22;19493;48.042;7.584;2023-03-08T11:38:01;13.70;99.90
26505;DHT22;19493;48.042;7.584;2023-03-08T11:41:05;13.90;99.90
26505;DHT22;19493;48.042;7.584;2023-03-08T11:51:08;14.50;99.90
26505;DHT22;19493;48.042;7.584;2023-03-08T11:53:43;14.90;99.90
26505;DHT22;19493;48.042;7.584;2023-03-08T11:56:41;15.70;99.90
26505;DHT22;19493;48.042;7.584;2023-03-08T11:59:38;16.80;99.90
26505;DHT22;19493;48.042;7.584;2023-03-08T12:07:25;16.90;99.90
26505;DHT22;19493;48.042;7.584;2023-03-08T12:10:01;16.90;99.90
26505;DHT22;19493;48.042;7.584;2023-03-08T12:12:30;16.90;99.90
26505;DHT22;19493;48.042;7.584;2023-03-08T12:17:38;16.50;99.90
26505;DHT22;19493;48.042;7.584;2023-03-08T12:20:04;16.90;99.90
26505;DHT22;19493;48.042;7.584;2023-03-08T12:31:02;16.20;99.90
26505;DHT22;19493;48.042;7.584;2023-03-08T12:33:31;16.00;99.90
26505;DHT22;19493;48.042;7.584;2023-03-08T12:36:03;15.60;99.90
26505;DHT22;19493;48.042;7.584;2023-03-08T12:38:33;15.50;99.90
26505;DHT22;19493;48.042;7.584;2023-03-08T12:41:00;15.20;99.90
26505;DHT22;19493;48.042;7.584;2023-03-08T12:46:10;15.60;99.90
26505;DHT22;19493;48.042;7.584;2023-03-08T12:48:37;15.60;99.90
26505;DHT22;19493;48.042;7.584;2023-03-08T12:58:57;15.00;99.90
26505;DHT22;19493;48.042;7.584;2023-03-08T13:01:43;14.80;99.90
26505;DHT22;19493;48.042;7.584;2023-03-08T13:04:32;14.70;99.90
26505;DHT22;19493;48.042;7.584;2023-03-08T13:12:23;14.60;99.90
26505;DHT22;19493;48.042;7.584;2023-03-08T13:17:48;14.80;99.90
26505;DHT22;19493;48.042;7.584;2023-03-08T13:20:25;14.70;99.90
26505;DHT22;19493;48.042;7.584;2023-03-08T13:28:09;16.10;99.90
26505;DHT22;19493;48.042;7.584;2023-03-08T13:30:42;16.60;99.90
26505;DHT22;19493;48.042;7.584;2023-03-08T13:33:36;17.10;99.90
26505;DHT22;19493;48.042;7.584;2023-03-08T13:36:20;17.20;99.90
26505;DHT22;19493;48.042;7.584;2023-03-08T13:39:00;17.60;99.90
26505;DHT22;19493;48.042;7.584;2023-03-08T13:41:45;16.20;99.90
26505;DHT22;19493;48.042;7.584;2023-03-08T13:44:15;15.70;99.90
26505;DHT22;19493;48.042;7.584;2023-03-08T13:46:41;15.60;99.90
26505;DHT22;19493;48.042;7.584;2023-03-08T13:51:49;15.20;99.90
26505;DHT22;19493;48.042;7.584;2023-03-08T13:54:33;15.30;99.90
26505;DHT22;19493;48.042;7.584;2023-03-08T13:57:01;15.00;99.90
26505;DHT22;19493;48.042;7.584;2023-03-08T13:59:28;15.00;99.90
26505;DHT22;19493;48.042;7.584;2023-03-08T14:01:54;14.80;99.90
26505;DHT22;19493;48.042;7.584;2023-03-08T14:04:22;15.10;99.90
26505;DHT22;19493;48.042;7.584;2023-03-08T14:06:51;16.10;99.90
26505;DHT22;19493;48.042;7.584;2023-03-08T14:09:16;17.10;99.90
26505;DHT22;19493;48.042;7.584;2023-03-08T14:11:43;16.90;99.90
26505;DHT22;19493;48.042;7.584;2023-03-08T14:14:18;16.00;99.90
26505;DHT22;19493;48.042;7.584;2023-03-08T14:16:46;16.30;99.90
26505;DHT22;19493;48.042;7.584;2023-03-08T14:19:25;17.00;99.90
26505;DHT22;19493;48.042;7.584;2023-03-08T14:24:32;16.50;99.90
26505;DHT22;19493;48.042;7.584;2023-03-08T14:29:40;17.00;99.90
26505;DHT22;19493;48.042;7.584;2023-03-08T14:34:42;19.30;99.90
26505;DHT22;19493;48.042;7.584;2023-03-08T14:39:41;17.80;99.90
26505;DHT22;19493;48.042;7.584;2023-03-08T14:44:56;16.80;99.90
26505;DHT22;19493;48.042;7.584;2023-03-08T14:47:25;16.50;99.90
26505;DHT22;19493;48.042;7.584;2023-03-08T14:50:21;16.20;99.90
26505;DHT22;19493;48.042;7.584;2023-03-08T14:52:49;15.80;99.90
26505;DHT22;19493;48.042;7.584;2023-03-08T14:55:30;15.40;99.90
26505;DHT22;19493;48.042;7.584;2023-03-08T14:58:00;14.80;99.90
26505;DHT22;19493;48.042;7.584;2023-03-08T15:00:26;14.50;99.90
26505;DHT22;19493;48.042;7.584;2023-03-08T15:02:53;14.40;99.90
26505;DHT22;19493;48.042;7.584;2023-03-08T15:05:21;14.30;99.90
26505;DHT22;19493;48.042;7.584;2023-03-08T15:07:48;14.20;99.90
26505;DHT22;19493;48.042;7.584;2023-03-08T15:10:35;14.00;99.90
26505;DHT22;19493;48.042;7.584;2023-03-08T15:13:03;13.80;99.90
26505;DHT22;19493;48.042;7.584;2023-03-08T15:15:29;13.70;99.90
26505;DHT22;19493;48.042;7.584;2023-03-08T15:17:55;13.50;99.90
26505;DHT22;19493;48.042;7.584;2023-03-08T15:20:21;13.30;99.90
26505;DHT22;19493;48.042;7.584;2023-03-08T15:22:53;13.00;99.90
26505;DHT22;19493;48.042;7.584;2023-03-08T15:25:28;12.70;99.90
26505;DHT22;19493;48.042;7.584;2023-03-08T15:27:54;12.30;99.90
26505;DHT22;19493;48.042;7.584;2023-03-08T15:30:23;12.30;99.90
26505;DHT22;19493;48.042;7.584;2023-03-08T15:32:49;12.20;99.90
26505;DHT22;19493;48.042;7.584;2023-03-08T15:35:15;11.90;99.90
26505;DHT22;19493;48.042;7.584;2023-03-08T15:37:41;11.80;99.90
26505;DHT22;19493;48.042;7.584;2023-03-08T15:40:18;11.60;99.90
26505;DHT22;19493;48.042;7.584;2023-03-08T15:42:45;11.50;99.90
26505;DHT22;19493;48.042;7.584;2023-03-08T15:45:11;11.40;99.90
26505;DHT22;19493;48.042;7.584;2023-03-08T15:47:37;11.40;99.90
26505;DHT22;19493;48.042;7.584;2023-03-08T15:50:04;11.40;99.90
26505;DHT22;19493;48.042;7.584;2023-03-08T15:52:31;11.40;99.90
26505;DHT22;19493;48.042;7.584;2023-03-08T15:54:57;11.30;99.90
26505;DHT22;19493;48.042;7.584;2023-03-08T15:57:22;11.30;99.90
26505;DHT22;19493;48.042;7.584;2023-03-08T15:59:48;11.30;99.90
26505;DHT22;19493;48.042;7.584;2023-03-08T16:02:17;11.20;99.90
26505;DHT22;19493;48.042;7.584;2023-03-08T16:04:43;11.10;99.90
26505;DHT22;19493;48.042;7.584;2023-03-08T16:07:17;11.20;99.90
26505;DHT22;19493;48.042;7.584;2023-03-08T16:09:44;11.20;99.90
26505;DHT22;19493;48.042;7.584;2023-03-08T16:12:10;11.40;99.90
26505;DHT22;19493;48.042;7.584;2023-03-08T16:14:35;11.40;99.90
26505;DHT22;19493;48.042;7.584;2023-03-08T16:17:02;11.40;99.90
26505;DHT22;19493;48.042;7.584;2023-03-08T16:19:32;11.40;99.90
26505;DHT22;19493;48.042;7.584;2023-03-08T16:21:58;11.40;99.90
26505;DHT22;19493;48.042;7.584;2023-03-08T16:24:24;11.40;99.90
26505;DHT22;19493;48.042;7.584;2023-03-08T16:26:50;11.40;99.90
26505;DHT22;19493;48.042;7.584;2023-03-08T16:29:15;11.30;99.90
26505;DHT22;19493;48.042;7.584;2023-03-08T16:31:41;11.30;99.90
26505;DHT22;19493;48.042;7.584;2023-03-08T16:34:07;11.30;99.90
26505;DHT22;19493;48.042;7.584;2023-03-08T16:36:32;11.40;99.90
26505;DHT22;19493;48.042;7.584;2023-03-08T16:38:58;11.30;99.90
26505;DHT22;19493;48.042;7.584;2023-03-08T16:41:24;11.20;99.90
26505;DHT22;19493;48.042;7.584;2023-03-08T16:43:51;11.20;99.90
26505;DHT22;19493;48.042;7.584;2023-03-08T16:46:21;11.10;99.90
26505;DHT22;19493;48.042;7.584;2023-03-08T16:48:48;11.10;99.90
26505;DHT22;19493;48.042;7.584;2023-03-08T16:51:18;11.00;99.90
26505;DHT22;19493;48.042;7.584;2023-03-08T16:53:44;10.90;99.90
26505;DHT22;19493;48.042;7.584;2023-03-08T16:56:26;10.70;99.90
26505;DHT22;19493;48.042;7.584;2023-03-08T16:58:53;10.70;99.90
26505;DHT22;19493;48.042;7.584;2023-03-08T17:01:19;10.60;99.90
26505;DHT22;19493;48.042;7.584;2023-03-08T17:03:45;10.50;99.90
26505;DHT22;19493;48.042;7.584;2023-03-08T17:06:14;10.50;99.90
26505;DHT22;19493;48.042;7.584;2023-03-08T17:08:40;10.40;99.90
26505;DHT22;19493;48.042;7.584;2023-03-08T17:11:13;10.40;99.90
26505;DHT22;19493;48.042;7.584;2023-03-08T17:13:39;10.40;99.90